sensor_id;sensor_type;location;lat;lon;timestamp;pressure;altitude;pressure_sealevel;temperature;humidity
69257;BME280;56376;53.356;-1.748;2023-05-09T00:01:31;99156.97;;;12.75;100.00
69257;BME280;56376;53.356;-1.748;2023-05-09T00:03:58;99151.72;;;12.75;100.00
69257;BME280;56376;53.356;-1.748;2023-05-09T00:06:24;99140.50;;;12.73;100.00
69257;BME280;56376;53.356;-1.748;2023-05-09T00:08:50;99141.56;;;12.69;100.00
69257;BME280;56376;53.356;-1.748;2023-05-09T00:11:15;99140.50;;;12.73;100.00
69257;BME280;56376;53.356;-1.748;2023-05-09T00:13:40;99127.63;;;12.68;100.00
69257;BME280;56376;53.356;-1.748;2023-05-09T00:16:08;99134.53;;;12.69;100.00
69257;BME280;56376;53.356;-1.748;2023-05-09T00:18:34;99135.38;;;12.70;100.00
69257;BME280;56376;53.356;-1.748;2023-05-09T00:21:01;99133.72;;;12.69;100.00
69257;BME280;56376;53.356;-1.748;2023-05-09T00:23:29;99130.16;;;12.70;100.00
69257;BME280;56376;53.356;-1.748;2023-05-09T00:25:54;99134.66;;;12.68;100.00
69257;BME280;56376;53.356;-1.748;2023-05-09T00:28:19;99131.16;;;12.67;100.00
69257;BME280;56376;53.356;-1.748;2023-05-09T00:30:45;99118.16;;;12.66;100.00
69257;BME280;56376;53.356;-1.748;2023-05-09T00:33:10;99108.66;;;12.63;100.00
69257;BME280;56376;53.356;-1.748;2023-05-09T00:35:36;99101.66;;;12.64;100.00
69257;BME280;56376;53.356;-1.748;2023-05-09T00:38:01;99100.03;;;12.61;100.00
69257;BME280;56376;53.356;-1.748;2023-05-09T00:40:26;99105.44;;;12.58;100.00
69257;BME280;56376;53.356;-1.748;2023-05-09T00:42:52;99096.13;;;12.52;100.00
69257;BME280;56376;53.356;-1.748;2023-05-09T00:45:17;99101.38;;;12.52;100.00
69257;BME280;56376;53.356;-1.748;2023-05-09T00:47:43;99095.44;;;12.49;100.00
69257;BME280;56376;53.356;-1.748;2023-05-09T00:50:08;99092.91;;;12.47;100.00
69257;BME280;56376;53.356;-1.748;2023-05-09T00:52:35;99097.50;;;12.42;100.00
69257;BME280;56376;53.356;-1.748;2023-05-09T00:55:01;99092.41;;;12.39;100.00
69257;BME280;56376;53.356;-1.748;2023-05-09T00:57:26;99090.91;;;12.35;100.00
69257;BME280;56376;53.356;-1.748;2023-05-09T00:59:51;99093.59;;;12.33;100.00
69257;BME280;56376;53.356;-1.748;2023-05-09T01:02:17;99091.13;;;12.30;100.00
69257;BME280;56376;53.356;-1.748;2023-05-09T01:04:44;99094.66;;;12.29;100.00
69257;BME280;56376;53.356;-1.748;2023-05-09T01:07:18;99093.75;;;12.30;100.00
69257;BME280;56376;53.356;-1.748;2023-05-09T01:10:02;99083.28;;;12.30;100.00
69257;BME280;56376;53.356;-1.748;2023-05-09T01:15:30;99083.34;;;12.29;100.00
69257;BME280;56376;53.356;-1.748;2023-05-09T01:20:40;99079.19;;;12.25;100.00
69257;BME280;56376;53.356;-1.748;2023-05-09T01:23:11;99076.63;;;12.23;100.00
69257;BME280;56376;53.356;-1.748;2023-05-09T01:25:47;99074.03;;;12.23;100.00
69257;BME280;56376;53.356;-1.748;2023-05-09T01:28:41;99067.94;;;12.23;100.00
69257;BME280;56376;53.356;-1.748;2023-05-09T01:31:14;99062.72;;;12.23;100.00
69257;BME280;56376;53.356;-1.748;2023-05-09T01:33:41;99055.84;;;12.20;100.00
69257;BME280;56376;53.356;-1.748;2023-05-09T01:36:15;99049.69;;;12.21;100.00
69257;BME280;56376;53.356;-1.748;2023-05-09T01:38:41;99047.84;;;12.23;100.00
69257;BME280;56376;53.356;-1.748;2023-05-09T01:41:10;99051.31;;;12.24;100.00
69257;BME280;56376;53.356;-1.748;2023-05-09T01:43:37;99047.78;;;12.25;100.00
69257;BME280;56376;53.356;-1.748;2023-05-09T01:46:05;99038.97;;;12.26;100.00
69257;BME280;56376;53.356;-1.748;2023-05-09T01:48:33;99050.47;;;12.23;100.00
69257;BME280;56376;53.356;-1.748;2023-05-09T01:51:01;99043.59;;;12.21;100.00
69257;BME280;56376;53.356;-1.748;2023-05-09T01:53:28;99043.66;;;12.19;100.00
69257;BME280;56376;53.356;-1.748;2023-05-09T01:55:55;99040.97;;;12.21;100.00
69257;BME280;56376;53.356;-1.748;2023-05-09T01:58:22;99051.47;;;12.21;100.00
69257;BME280;56376;53.356;-1.748;2023-05-09T02:00:49;99048.22;;;12.16;100.00
69257;BME280;56376;53.356;-1.748;2023-05-09T02:03:15;99046.38;;;12.18;100.00
69257;BME280;56376;53.356;-1.748;2023-05-09T02:05:41;99043.94;;;12.15;100.00
69257;BME280;56376;53.356;-1.748;2023-05-09T02:08:07;99055.16;;;12.17;100.00
69257;BME280;56376;53.356;-1.748;2023-05-09T02:10:34;99048.16;;;12.17;100.00
69257;BME280;56376;53.356;-1.748;2023-05-09T02:12:59;99048.22;;;12.16;100.00
69257;BME280;56376;53.356;-1.748;2023-05-09T02:15:25;99048.28;;;12.14;100.00
69257;BME280;56376;53.356;-1.748;2023-05-09T02:17:51;99043.16;;;12.12;100.00
69257;BME280;56376;53.356;-1.748;2023-05-09T02:20:17;99040.66;;;12.09;100.00
69257;BME280;56376;53.356;-1.748;2023-05-09T02:22:43;99042.66;;;12.04;100.00
69257;BME280;56376;53.356;-1.748;2023-05-09T02:25:10;99048.00;;;12.03;100.00
69257;BME280;56376;53.356;-1.748;2023-05-09T02:27:38;99047.28;;;11.99;100.00
69257;BME280;56376;53.356;-1.748;2023-05-09T02:30:07;99056.13;;;11.97;100.00
69257;BME280;56376;53.356;-1.748;2023-05-09T02:32:36;99050.16;;;11.95;100.00
69257;BME280;56376;53.356;-1.748;2023-05-09T02:35:03;99042.44;;;11.91;100.00
69257;BME280;56376;53.356;-1.748;2023-05-09T02:37:30;99045.16;;;11.90;100.00
69257;BME280;56376;53.356;-1.748;2023-05-09T02:39:57;99039.97;;;11.88;100.00
69257;BME280;56376;53.356;-1.748;2023-05-09T02:42:24;99046.03;;;11.89;100.00
69257;BME280;56376;53.356;-1.748;2023-05-09T02:44:51;99039.91;;;11.90;100.00
69257;BME280;56376;53.356;-1.748;2023-05-09T02:47:16;99041.59;;;11.91;100.00
69257;BME280;56376;53.356;-1.748;2023-05-09T02:49:42;99037.13;;;11.93;100.00
69257;BME280;56376;53.356;-1.748;2023-05-09T02:52:07;99029.28;;;11.93;100.00
69257;BME280;56376;53.356;-1.748;2023-05-09T02:54:33;99027.44;;;11.95;100.00
69257;BME280;56376;53.356;-1.748;2023-05-09T02:56:58;99022.22;;;11.95;100.00
69257;BME280;56376;53.356;-1.748;2023-05-09T02:59:24;99019.50;;;11.97;100.00
69257;BME280;56376;53.356;-1.748;2023-05-09T03:01:50;99010.75;;;11.98;100.00
69257;BME280;56376;53.356;-1.748;2023-05-09T03:04:16;99020.28;;;11.99;100.00
69257;BME280;56376;53.356;-1.748;2023-05-09T03:06:42;99015.88;;;11.99;100.00
69257;BME280;56376;53.356;-1.748;2023-05-09T03:09:08;99015.88;;;11.99;100.00
69257;BME280;56376;53.356;-1.748;2023-05-09T03:11:34;99017.59;;;12.00;100.00
69257;BME280;56376;53.356;-1.748;2023-05-09T03:14:01;99020.22;;;12.00;100.00
69257;BME280;56376;53.356;-1.748;2023-05-09T03:16:26;99023.72;;;11.99;100.00
69257;BME280;56376;53.356;-1.748;2023-05-09T03:18:52;99019.38;;;12.00;100.00
69257;BME280;56376;53.356;-1.748;2023-05-09T03:21:17;99021.22;;;11.98;100.00
69257;BME280;56376;53.356;-1.748;2023-05-09T03:23:42;99020.38;;;11.97;100.00
69257;BME280;56376;53.356;-1.748;2023-05-09T03:26:08;99017.75;;;11.97;100.00
69257;BME280;56376;53.356;-1.748;2023-05-09T03:28:33;99020.38;;;11.97;100.00
69257;BME280;56376;53.356;-1.748;2023-05-09T03:30:58;99012.50;;;11.97;100.00
69257;BME280;56376;53.356;-1.748;2023-05-09T03:33:24;99018.59;;;11.98;100.00
69257;BME280;56376;53.356;-1.748;2023-05-09T03:35:50;99015.13;;;11.97;100.00
69257;BME280;56376;53.356;-1.748;2023-05-09T03:38:15;99010.81;;;11.96;100.00
69257;BME280;56376;53.356;-1.748;2023-05-09T03:40:40;99009.97;;;11.96;100.00
69257;BME280;56376;53.356;-1.748;2023-05-09T03:43:06;99013.41;;;11.96;100.00
69257;BME280;56376;53.356;-1.748;2023-05-09T03:45:31;99024.66;;;11.98;100.00
69257;BME280;56376;53.356;-1.748;2023-05-09T03:47:56;99019.50;;;11.97;100.00
69257;BME280;56376;53.356;-1.748;2023-05-09T03:50:22;99020.38;;;11.97;100.00
69257;BME280;56376;53.356;-1.748;2023-05-09T03:52:47;99028.13;;;11.99;100.00
69257;BME280;56376;53.356;-1.748;2023-05-09T03:55:14;99013.34;;;11.98;100.00
69257;BME280;56376;53.356;-1.748;2023-05-09T03:57:40;99022.03;;;11.98;100.00
69257;BME280;56376;53.356;-1.748;2023-05-09T04:00:06;99011.56;;;11.98;100.00
69257;BME280;56376;53.356;-1.748;2023-05-09T04:02:32;99007.19;;;11.99;100.00
69257;BME280;56376;53.356;-1.748;2023-05-09T04:04:58;99005.34;;;12.01;100.00
69257;BME280;56376;53.356;-1.748;2023-05-09T04:07:24;99011.50;;;12.00;100.00
69257;BME280;56376;53.356;-1.748;2023-05-09T04:09:50;99011.41;;;12.01;100.00
69257;BME280;56376;53.356;-1.748;2023-05-09T04:12:16;99001.94;;;11.99;100.00
69257;BME280;56376;53.356;-1.748;2023-05-09T04:14:41;99002.94;;;11.96;100.00
69257;BME280;56376;53.356;-1.748;2023-05-09T04:17:07;98995.19;;;11.95;100.00
69257;BME280;56376;53.356;-1.748;2023-05-09T04:19:32;99005.56;;;11.96;100.00
69257;BME280;56376;53.356;-1.748;2023-05-09T04:21:58;99002.09;;;11.96;100.00
69257;BME280;56376;53.356;-1.748;2023-05-09T04:24:23;99000.34;;;11.96;100.00
69257;BME280;56376;53.356;-1.748;2023-05-09T04:26:48;98996.88;;;11.96;100.00
69257;BME280;56376;53.356;-1.748;2023-05-09T04:29:15;98985.41;;;11.98;100.00
69257;BME280;56376;53.356;-1.748;2023-05-09T04:31:40;99000.16;;;11.99;100.00
69257;BME280;56376;53.356;-1.748;2023-05-09T04:34:05;98995.88;;;11.98;100.00
69257;BME280;56376;53.356;-1.748;2023-05-09T04:36:34;98988.97;;;11.97;100.00
69257;BME280;56376;53.356;-1.748;2023-05-09T04:38:59;98983.78;;;11.96;100.00
69257;BME280;56376;53.356;-1.748;2023-05-09T04:41:25;98990.69;;;11.97;100.00
69257;BME280;56376;53.356;-1.748;2023-05-09T04:43:50;98993.25;;;11.98;100.00
69257;BME280;56376;53.356;-1.748;2023-05-09T04:46:16;98993.25;;;11.98;100.00
69257;BME280;56376;53.356;-1.748;2023-05-09T04:48:42;98993.19;;;12.00;100.00
69257;BME280;56376;53.356;-1.748;2023-05-09T04:51:07;98983.63;;;11.99;100.00
69257;BME280;56376;53.356;-1.748;2023-05-09T04:53:32;98978.56;;;11.96;100.00
69257;BME280;56376;53.356;-1.748;2023-05-09T04:55:58;98982.00;;;11.96;100.00
69257;BME280;56376;53.356;-1.748;2023-05-09T04:58:23;98980.16;;;11.98;100.00
69257;BME280;56376;53.356;-1.748;2023-05-09T05:00:50;98985.34;;;12.00;100.00
69257;BME280;56376;53.356;-1.748;2023-05-09T05:03:16;98978.50;;;11.97;100.00
69257;BME280;56376;53.356;-1.748;2023-05-09T05:05:42;98974.94;;;11.98;100.00
69257;BME280;56376;53.356;-1.748;2023-05-09T05:08:07;98978.38;;;11.99;100.00
69257;BME280;56376;53.356;-1.748;2023-05-09T05:10:32;98982.78;;;11.98;100.00
69257;BME280;56376;53.356;-1.748;2023-05-09T05:12:58;98975.00;;;11.97;100.00
69257;BME280;56376;53.356;-1.748;2023-05-09T05:15:23;98979.41;;;11.96;100.00
69257;BME280;56376;53.356;-1.748;2023-05-09T05:17:48;98972.72;;;11.90;100.00
69257;BME280;56376;53.356;-1.748;2023-05-09T05:20:14;98972.66;;;11.92;100.00
69257;BME280;56376;53.356;-1.748;2023-05-09T05:22:39;98978.00;;;11.89;100.00
69257;BME280;56376;53.356;-1.748;2023-05-09T05:25:05;98971.16;;;11.86;100.00
69257;BME280;56376;53.356;-1.748;2023-05-09T05:27:31;98966.91;;;11.84;100.00
69257;BME280;56376;53.356;-1.748;2023-05-09T05:29:56;98967.81;;;11.83;100.00
69257;BME280;56376;53.356;-1.748;2023-05-09T05:32:22;98973.13;;;11.81;100.00
69257;BME280;56376;53.356;-1.748;2023-05-09T05:34:47;98962.75;;;11.80;100.00
69257;BME280;56376;53.356;-1.748;2023-05-09T05:37:13;98956.53;;;11.82;100.00
69257;BME280;56376;53.356;-1.748;2023-05-09T05:39:39;98963.31;;;11.86;100.00
69257;BME280;56376;53.356;-1.748;2023-05-09T05:42:04;98957.00;;;11.90;100.00
69257;BME280;56376;53.356;-1.748;2023-05-09T05:44:30;98955.00;;;11.96;100.00
69257;BME280;56376;53.356;-1.748;2023-05-09T05:46:55;98954.66;;;12.02;100.00
69257;BME280;56376;53.356;-1.748;2023-05-09T05:49:21;98950.81;;;12.09;100.00
69257;BME280;56376;53.356;-1.748;2023-05-09T05:51:46;98952.13;;;12.18;100.00
69257;BME280;56376;53.356;-1.748;2023-05-09T05:54:11;98949.34;;;12.21;100.00
69257;BME280;56376;53.356;-1.748;2023-05-09T05:56:37;98945.13;;;12.18;100.00
69257;BME280;56376;53.356;-1.748;2023-05-09T05:59:02;98944.44;;;12.15;100.00
69257;BME280;56376;53.356;-1.748;2023-05-09T06:01:27;98943.72;;;12.11;100.00
69257;BME280;56376;53.356;-1.748;2023-05-09T06:03:53;98943.81;;;12.09;100.00
69257;BME280;56376;53.356;-1.748;2023-05-09T06:06:21;98941.19;;;12.09;100.00
69257;BME280;56376;53.356;-1.748;2023-05-09T06:08:47;98945.44;;;12.12;100.00
69257;BME280;56376;53.356;-1.748;2023-05-09T06:11:16;98936.59;;;12.15;100.00
69257;BME280;56376;53.356;-1.748;2023-05-09T06:13:41;98946.78;;;12.19;100.00
69257;BME280;56376;53.356;-1.748;2023-05-09T06:16:07;98933.81;;;12.18;100.00
69257;BME280;56376;53.356;-1.748;2023-05-09T06:18:36;98938.69;;;12.24;100.00
69257;BME280;56376;53.356;-1.748;2023-05-09T06:21:04;98940.31;;;12.26;100.00
69257;BME280;56376;53.356;-1.748;2023-05-09T06:23:30;98935.84;;;12.28;100.00
69257;BME280;56376;53.356;-1.748;2023-05-09T06:25:55;98938.53;;;12.27;100.00
69257;BME280;56376;53.356;-1.748;2023-05-09T06:28:21;98948.94;;;12.28;100.00
69257;BME280;56376;53.356;-1.748;2023-05-09T06:30:46;98944.66;;;12.27;100.00
69257;BME280;56376;53.356;-1.748;2023-05-09T06:33:11;98947.09;;;12.30;100.00
69257;BME280;56376;53.356;-1.748;2023-05-09T06:35:37;98948.72;;;12.33;100.00
69257;BME280;56376;53.356;-1.748;2023-05-09T06:38:03;98947.09;;;12.30;100.00
69257;BME280;56376;53.356;-1.748;2023-05-09T06:40:29;98963.56;;;12.32;100.00
69257;BME280;56376;53.356;-1.748;2023-05-09T06:42:54;98961.81;;;12.33;100.00
69257;BME280;56376;53.356;-1.748;2023-05-09T06:45:20;98954.72;;;12.35;100.00
69257;BME280;56376;53.356;-1.748;2023-05-09T06:47:45;98959.19;;;12.33;100.00
69257;BME280;56376;53.356;-1.748;2023-05-09T06:50:10;98961.63;;;12.36;100.00
69257;BME280;56376;53.356;-1.748;2023-05-09T06:52:36;98960.69;;;12.37;100.00
69257;BME280;56376;53.356;-1.748;2023-05-09T06:55:02;98953.78;;;12.36;100.00
69257;BME280;56376;53.356;-1.748;2023-05-09T06:57:27;98955.72;;;12.32;100.00
69257;BME280;56376;53.356;-1.748;2023-05-09T06:59:53;98964.25;;;12.36;100.00
69257;BME280;56376;53.356;-1.748;2023-05-09T07:02:18;98961.81;;;12.33;100.00
69257;BME280;56376;53.356;-1.748;2023-05-09T07:04:43;98961.69;;;12.34;100.00
69257;BME280;56376;53.356;-1.748;2023-05-09T07:07:09;98962.56;;;12.35;100.00
69257;BME280;56376;53.356;-1.748;2023-05-09T07:09:34;98961.03;;;12.31;100.00
69257;BME280;56376;53.356;-1.748;2023-05-09T07:11:59;98967.94;;;12.32;100.00
69257;BME280;56376;53.356;-1.748;2023-05-09T07:14:25;98972.34;;;12.31;100.00
69257;BME280;56376;53.356;-1.748;2023-05-09T07:16:51;98974.13;;;12.31;100.00
69257;BME280;56376;53.356;-1.748;2023-05-09T07:19:16;98975.97;;;12.29;100.00
69257;BME280;56376;53.356;-1.748;2023-05-09T07:21:42;98974.19;;;12.29;100.00
69257;BME280;56376;53.356;-1.748;2023-05-09T07:24:07;98977.75;;;12.28;100.00
69257;BME280;56376;53.356;-1.748;2023-05-09T07:26:34;98959.69;;;12.40;100.00
69257;BME280;56376;53.356;-1.748;2023-05-09T07:28:59;98962.44;;;12.54;100.00
69257;BME280;56376;53.356;-1.748;2023-05-09T07:31:25;98960.25;;;12.62;100.00
69257;BME280;56376;53.356;-1.748;2023-05-09T07:33:50;98959.22;;;12.65;100.00
69257;BME280;56376;53.356;-1.748;2023-05-09T07:36:16;98961.69;;;12.68;100.00
69257;BME280;56376;53.356;-1.748;2023-05-09T07:38:41;98967.53;;;12.73;100.00
69257;BME280;56376;53.356;-1.748;2023-05-09T07:41:07;98964.41;;;12.82;100.00
69257;BME280;56376;53.356;-1.748;2023-05-09T07:43:32;98961.63;;;13.01;100.00
69257;BME280;56376;53.356;-1.748;2023-05-09T07:45:57;98958.56;;;13.25;100.00
69257;BME280;56376;53.356;-1.748;2023-05-09T07:48:23;98961.94;;;13.42;100.00
69257;BME280;56376;53.356;-1.748;2023-05-09T07:50:48;98961.84;;;13.60;100.00
69257;BME280;56376;53.356;-1.748;2023-05-09T07:53:14;98946.31;;;13.71;100.00
69257;BME280;56376;53.356;-1.748;2023-05-09T07:55:40;98955.69;;;13.75;100.00
69257;BME280;56376;53.356;-1.748;2023-05-09T07:58:06;98954.78;;;13.76;100.00
69257;BME280;56376;53.356;-1.748;2023-05-09T08:00:31;98960.47;;;13.69;100.00
69257;BME280;56376;53.356;-1.748;2023-05-09T08:02:56;98952.88;;;13.64;100.00
69257;BME280;56376;53.356;-1.748;2023-05-09T08:05:22;98954.34;;;13.68;100.00
69257;BME280;56376;53.356;-1.748;2023-05-09T08:07:47;98957.94;;;13.67;100.00
69257;BME280;56376;53.356;-1.748;2023-05-09T08:10:13;98951.00;;;13.66;100.00
69257;BME280;56376;53.356;-1.748;2023-05-09T08:12:38;98953.84;;;13.77;100.00
69257;BME280;56376;53.356;-1.748;2023-05-09T08:15:04;98947.09;;;13.88;100.00
69257;BME280;56376;53.356;-1.748;2023-05-09T08:17:29;98952.13;;;14.06;100.00
69257;BME280;56376;53.356;-1.748;2023-05-09T08:19:55;98942.66;;;14.33;100.00
69257;BME280;56376;53.356;-1.748;2023-05-09T08:22:21;98937.97;;;14.52;100.00
69257;BME280;56376;53.356;-1.748;2023-05-09T08:24:47;98932.16;;;14.61;100.00
69257;BME280;56376;53.356;-1.748;2023-05-09T08:27:13;98937.41;;;14.76;100.00
69257;BME280;56376;53.356;-1.748;2023-05-09T08:29:39;98927.41;;;14.95;100.00
69257;BME280;56376;53.356;-1.748;2023-05-09T08:32:04;98924.63;;;15.11;100.00
69257;BME280;56376;53.356;-1.748;2023-05-09T08:34:30;98931.81;;;15.22;100.00
69257;BME280;56376;53.356;-1.748;2023-05-09T08:37:01;98922.09;;;15.36;100.00
69257;BME280;56376;53.356;-1.748;2023-05-09T08:39:28;98930.03;;;15.49;100.00
69257;BME280;56376;53.356;-1.748;2023-05-09T08:41:59;98931.75;;;15.63;100.00
69257;BME280;56376;53.356;-1.748;2023-05-09T08:44:26;98926.13;;;15.82;100.00
69257;BME280;56376;53.356;-1.748;2023-05-09T08:46:54;98930.16;;;16.00;100.00
69257;BME280;56376;53.356;-1.748;2023-05-09T08:49:21;98933.72;;;16.12;100.00
69257;BME280;56376;53.356;-1.748;2023-05-09T08:51:47;98928.88;;;16.19;100.00
69257;BME280;56376;53.356;-1.748;2023-05-09T08:54:13;98934.16;;;16.19;100.00
69257;BME280;56376;53.356;-1.748;2023-05-09T08:56:40;98941.97;;;16.20;100.00
69257;BME280;56376;53.356;-1.748;2023-05-09T08:59:06;98937.84;;;16.29;100.00
69257;BME280;56376;53.356;-1.748;2023-05-09T09:01:35;98952.69;;;16.30;100.00
69257;BME280;56376;53.356;-1.748;2023-05-09T09:04:01;98950.59;;;16.35;100.00
69257;BME280;56376;53.356;-1.748;2023-05-09T09:06:35;98951.84;;;16.30;100.00
69257;BME280;56376;53.356;-1.748;2023-05-09T09:09:01;98927.41;;;16.28;100.00
69257;BME280;56376;53.356;-1.748;2023-05-09T09:11:30;98940.69;;;16.26;100.00
69257;BME280;56376;53.356;-1.748;2023-05-09T09:14:00;98933.84;;;16.23;100.00
69257;BME280;56376;53.356;-1.748;2023-05-09T09:16:27;98932.06;;;16.24;100.00
69257;BME280;56376;53.356;-1.748;2023-05-09T09:18:55;98918.66;;;16.27;100.00
69257;BME280;56376;53.356;-1.748;2023-05-09T09:21:23;98924.22;;;16.35;100.00
69257;BME280;56376;53.356;-1.748;2023-05-09T09:23:50;98914.94;;;16.42;100.00
69257;BME280;56376;53.356;-1.748;2023-05-09T09:26:16;98930.34;;;16.49;100.00
69257;BME280;56376;53.356;-1.748;2023-05-09T09:28:42;98927.41;;;16.53;100.00
69257;BME280;56376;53.356;-1.748;2023-05-09T09:31:24;98927.41;;;16.53;100.00
69257;BME280;56376;53.356;-1.748;2023-05-09T09:33:50;98917.69;;;16.54;100.00
69257;BME280;56376;53.356;-1.748;2023-05-09T09:36:25;98913.66;;;16.61;100.00
69257;BME280;56376;53.356;-1.748;2023-05-09T09:38:55;98917.66;;;16.66;100.00
69257;BME280;56376;53.356;-1.748;2023-05-09T09:41:32;98913.00;;;16.70;100.00
69257;BME280;56376;53.356;-1.748;2023-05-09T09:43:57;98909.75;;;16.79;100.00
69257;BME280;56376;53.356;-1.748;2023-05-09T09:46:23;98910.78;;;16.90;100.00
69257;BME280;56376;53.356;-1.748;2023-05-09T09:48:48;98907.16;;;17.03;100.00
69257;BME280;56376;53.356;-1.748;2023-05-09T09:51:19;98913.06;;;17.18;100.00
69257;BME280;56376;53.356;-1.748;2023-05-09T09:53:52;98905.47;;;17.26;100.00
69257;BME280;56376;53.356;-1.748;2023-05-09T09:56:17;98904.22;;;17.19;100.00
69257;BME280;56376;53.356;-1.748;2023-05-09T09:58:43;98910.38;;;17.07;99.73
69257;BME280;56376;53.356;-1.748;2023-05-09T10:01:10;98902.53;;;16.94;100.00
69257;BME280;56376;53.356;-1.748;2023-05-09T10:03:42;98892.06;;;16.93;100.00
69257;BME280;56376;53.356;-1.748;2023-05-09T10:06:13;98894.47;;;16.96;100.00
69257;BME280;56376;53.356;-1.748;2023-05-09T10:08:40;98900.06;;;17.04;100.00
69257;BME280;56376;53.356;-1.748;2023-05-09T10:11:05;98894.16;;;17.00;100.00
69257;BME280;56376;53.356;-1.748;2023-05-09T10:13:33;98897.44;;;17.04;100.00
69257;BME280;56376;53.356;-1.748;2023-05-09T10:16:00;98897.09;;;17.08;100.00
69257;BME280;56376;53.356;-1.748;2023-05-09T10:18:28;98903.31;;;17.07;99.79
69257;BME280;56376;53.356;-1.748;2023-05-09T10:20:56;98898.31;;;16.92;100.00
69257;BME280;56376;53.356;-1.748;2023-05-09T10:23:25;98898.22;;;16.80;98.84
69257;BME280;56376;53.356;-1.748;2023-05-09T10:28:31;98883.94;;;16.59;100.00
69257;BME280;56376;53.356;-1.748;2023-05-09T10:31:25;98889.19;;;16.59;100.00
69257;BME280;56376;53.356;-1.748;2023-05-09T10:33:52;98884.34;;;16.53;100.00
69257;BME280;56376;53.356;-1.748;2023-05-09T10:36:20;98895.84;;;16.52;99.31
69257;BME280;56376;53.356;-1.748;2023-05-09T10:38:47;98890.69;;;16.50;99.13
69257;BME280;56376;53.356;-1.748;2023-05-09T10:41:15;98878.97;;;16.54;100.00
69257;BME280;56376;53.356;-1.748;2023-05-09T10:43:41;98885.59;;;16.60;100.00
69257;BME280;56376;53.356;-1.748;2023-05-09T10:46:07;98881.81;;;16.64;100.00
69257;BME280;56376;53.356;-1.748;2023-05-09T10:48:33;98879.34;;;16.74;100.00
69257;BME280;56376;53.356;-1.748;2023-05-09T10:51:00;98876.72;;;16.74;100.00
69257;BME280;56376;53.356;-1.748;2023-05-09T10:53:46;98878.09;;;16.79;100.00
69257;BME280;56376;53.356;-1.748;2023-05-09T10:56:22;98877.78;;;16.84;100.00
69257;BME280;56376;53.356;-1.748;2023-05-09T10:58:48;98875.97;;;16.84;97.78
69257;BME280;56376;53.356;-1.748;2023-05-09T11:01:13;98873.84;;;16.77;95.02
69257;BME280;56376;53.356;-1.748;2023-05-09T11:12:13;98862.72;;;16.60;100.00
69257;BME280;56376;53.356;-1.748;2023-05-09T11:14:39;98865.47;;;16.59;100.00
69257;BME280;56376;53.356;-1.748;2023-05-09T11:22:18;98855.53;;;16.62;100.00
69257;BME280;56376;53.356;-1.748;2023-05-09T11:25:05;98860.16;;;16.72;100.00
69257;BME280;56376;53.356;-1.748;2023-05-09T11:27:45;98853.53;;;16.79;100.00
69257;BME280;56376;53.356;-1.748;2023-05-09T11:30:13;98852.47;;;16.81;100.00
69257;BME280;56376;53.356;-1.748;2023-05-09T11:32:48;98861.13;;;16.83;100.00
69257;BME280;56376;53.356;-1.748;2023-05-09T11:35:16;98848.75;;;16.84;100.00
69257;BME280;56376;53.356;-1.748;2023-05-09T11:37:52;98850.91;;;16.79;100.00
69257;BME280;56376;53.356;-1.748;2023-05-09T11:40:20;98853.81;;;16.74;100.00
69257;BME280;56376;53.356;-1.748;2023-05-09T11:42:52;98853.59;;;16.77;100.00
69257;BME280;56376;53.356;-1.748;2023-05-09T11:45:18;98851.94;;;16.76;100.00
69257;BME280;56376;53.356;-1.748;2023-05-09T11:47:45;98857.09;;;16.78;100.00
69257;BME280;56376;53.356;-1.748;2023-05-09T11:50:12;98850.91;;;16.79;97.00
69257;BME280;56376;53.356;-1.748;2023-05-09T11:52:38;98854.16;;;16.70;99.49
69257;BME280;56376;53.356;-1.748;2023-05-09T11:55:09;98851.09;;;16.63;100.00
69257;BME280;56376;53.356;-1.748;2023-05-09T11:57:38;98840.91;;;16.58;100.00
69257;BME280;56376;53.356;-1.748;2023-05-09T12:00:06;98848.47;;;16.63;100.00
69257;BME280;56376;53.356;-1.748;2023-05-09T12:02:33;98844.94;;;16.75;100.00
69257;BME280;56376;53.356;-1.748;2023-05-09T12:05:06;98841.94;;;16.93;100.00
69257;BME280;56376;53.356;-1.748;2023-05-09T12:07:33;98833.88;;;17.07;100.00
69257;BME280;56376;53.356;-1.748;2023-05-09T12:09:58;98831.91;;;17.22;97.05
69257;BME280;56376;53.356;-1.748;2023-05-09T12:12:26;98841.97;;;17.28;97.56
69257;BME280;56376;53.356;-1.748;2023-05-09T12:14:52;98833.50;;;17.36;87.89
69257;BME280;56376;53.356;-1.748;2023-05-09T12:17:18;98834.78;;;17.30;91.81
69257;BME280;56376;53.356;-1.748;2023-05-09T12:19:43;98828.22;;;17.36;93.02
69257;BME280;56376;53.356;-1.748;2023-05-09T12:22:09;98818.78;;;17.44;95.36
69257;BME280;56376;53.356;-1.748;2023-05-09T12:24:35;98812.66;;;17.55;92.75
69257;BME280;56376;53.356;-1.748;2023-05-09T12:27:01;98809.81;;;17.69;92.91
69257;BME280;56376;53.356;-1.748;2023-05-09T12:29:28;98808.66;;;17.85;89.10
69257;BME280;56376;53.356;-1.748;2023-05-09T12:31:55;98805.78;;;17.88;89.87
69257;BME280;56376;53.356;-1.748;2023-05-09T12:34:22;98800.50;;;17.88;92.46
69257;BME280;56376;53.356;-1.748;2023-05-09T12:36:47;98803.72;;;17.91;88.00
69257;BME280;56376;53.356;-1.748;2023-05-09T12:39:19;98810.34;;;17.97;85.30
69257;BME280;56376;53.356;-1.748;2023-05-09T12:41:50;98798.69;;;18.00;84.22
69257;BME280;56376;53.356;-1.748;2023-05-09T12:44:23;98794.47;;;18.08;86.21
69257;BME280;56376;53.356;-1.748;2023-05-09T12:47:07;98795.56;;;18.17;85.75
69257;BME280;56376;53.356;-1.748;2023-05-09T12:49:36;98792.66;;;18.31;90.18
69257;BME280;56376;53.356;-1.748;2023-05-09T12:52:02;98797.78;;;18.44;90.47
69257;BME280;56376;53.356;-1.748;2023-05-09T12:54:28;98801.63;;;18.51;89.96
69257;BME280;56376;53.356;-1.748;2023-05-09T12:56:57;98800.69;;;18.52;86.41
69257;BME280;56376;53.356;-1.748;2023-05-09T12:59:25;98793.94;;;18.48;83.27
69257;BME280;56376;53.356;-1.748;2023-05-09T13:01:58;98793.38;;;18.45;83.84